Terminal Aerodrome Forecast
Issued by NWS Duluth, MN

Home | Current Version | Previous Version | Text Only | Print | Product List | Glossary On
Versions: 1 2 3 4 5 6 7 8 9 10 11 12 13 14 15 16 17 18 19 20 21
000
FTUS43 KDLH 230400 AAA
TAFINL
TAF AMD
KINL 230404Z 2304/2324 22008KT P6SM FEW060 OVC080
     FM230600 24007KT P6SM -FZDZ OVC015
     FM231200 27008KT P6SM -FZDZ OVC005
     FM231700 29009KT P6SM -SN OVC015=

USA.gov is the U.S. government's official web portal to all federal, state and local government web resources and services.